createdAt,value
2018-10-02T00:00:08.716Z,968.49
2018-10-02T00:01:08.747Z,968.49
2018-10-02T00:02:08.678Z,968.52
2018-10-02T00:03:08.668Z,968.50
2018-10-02T00:04:08.704Z,968.49
2018-10-02T00:05:08.644Z,968.56
2018-10-02T00:06:08.638Z,968.53
2018-10-02T00:07:08.620Z,968.54
2018-10-02T00:08:08.609Z,968.56
2018-10-02T00:09:08.607Z,968.54
2018-10-02T00:10:08.620Z,968.56
2018-10-02T00:11:08.576Z,968.60
2018-10-02T00:12:08.567Z,968.60
2018-10-02T00:13:08.553Z,968.66
2018-10-02T00:14:08.545Z,968.69
2018-10-02T00:15:08.563Z,968.66
2018-10-02T00:16:08.520Z,968.70
2018-10-02T00:17:08.509Z,968.67
2018-10-02T00:18:08.519Z,968.63
2018-10-02T00:19:08.488Z,968.65
2018-10-02T00:20:08.517Z,968.60
2018-10-02T00:21:08.469Z,968.60
2018-10-02T00:22:08.455Z,968.66
2018-10-02T00:23:08.454Z,968.66
2018-10-02T00:24:08.433Z,968.65
2018-10-02T00:25:08.460Z,968.62
2018-10-02T00:26:08.411Z,968.62
2018-10-02T00:27:08.404Z,968.61
2018-10-02T00:28:08.391Z,968.60
2018-10-02T00:29:08.381Z,968.64
2018-10-02T00:30:08.370Z,968.60
2018-10-02T00:31:08.402Z,968.62
2018-10-02T00:32:08.466Z,968.62
2018-10-02T00:33:08.342Z,968.61
2018-10-02T00:34:08.361Z,968.58
2018-10-02T00:35:08.336Z,968.65
2018-10-02T00:36:08.307Z,968.56
2018-10-02T00:37:08.298Z,968.58
2018-10-02T00:38:08.289Z,968.61
2018-10-02T00:39:08.318Z,968.59
2018-10-02T00:40:08.264Z,968.60
2018-10-02T00:41:08.269Z,968.60
2018-10-02T00:42:08.237Z,968.66
2018-10-02T00:43:08.232Z,968.67
2018-10-02T00:44:08.213Z,968.61
2018-10-02T00:45:08.203Z,968.59
2018-10-02T00:46:08.231Z,968.58
2018-10-02T00:47:08.190Z,968.61
2018-10-02T00:48:08.169Z,968.62
2018-10-02T00:49:08.163Z,968.61
2018-10-02T00:50:08.158Z,968.67
2018-10-02T00:51:08.134Z,968.68
2018-10-02T00:52:08.148Z,968.69
2018-10-02T00:53:08.121Z,968.74
2018-10-02T00:54:08.126Z,968.73
2018-10-02T00:55:08.092Z,968.73
2018-10-02T00:56:08.084Z,968.75
2018-10-02T00:57:08.078Z,968.75
2018-10-02T00:58:08.064Z,968.71
2018-10-02T00:59:08.082Z,968.70
2018-10-02T01:00:08.037Z,968.72
2018-10-02T01:01:08.025Z,968.67
2018-10-02T01:02:08.016Z,968.70
2018-10-02T01:03:08.006Z,968.70
2018-10-02T01:04:08.029Z,968.71
2018-10-02T01:05:07.985Z,968.70
2018-10-02T01:06:07.970Z,968.71
2018-10-02T01:07:07.964Z,968.77
2018-10-02T01:08:07.948Z,968.72
2018-10-02T01:09:07.941Z,968.70
2018-10-02T01:10:07.963Z,968.71
2018-10-02T01:11:07.929Z,968.76
2018-10-02T01:12:07.909Z,968.74
2018-10-02T01:13:07.892Z,968.73
2018-10-02T01:14:07.883Z,968.68
2018-10-02T01:15:07.894Z,968.67
2018-10-02T01:16:07.860Z,968.73
2018-10-02T01:17:07.853Z,968.74
2018-10-02T01:18:07.840Z,968.73
2018-10-02T01:19:07.866Z,968.74
2018-10-02T01:20:07.816Z,968.73
2018-10-02T01:21:07.809Z,968.70
2018-10-02T01:22:07.794Z,968.77
2018-10-02T01:23:07.786Z,968.71
2018-10-02T01:24:07.814Z,968.72
2018-10-02T01:25:07.770Z,968.72
2018-10-02T01:26:07.749Z,968.68
2018-10-02T01:27:07.771Z,968.71
2018-10-02T01:28:07.728Z,968.66
2018-10-02T01:29:07.718Z,968.74
2018-10-02T01:30:07.744Z,968.72
2018-10-02T01:31:07.695Z,968.69
2018-10-02T01:32:07.685Z,968.73
2018-10-02T01:33:07.680Z,968.76
2018-10-02T01:34:07.733Z,968.85
2018-10-02T01:35:07.652Z,968.81
2018-10-02T01:36:07.648Z,968.78
2018-10-02T01:37:07.670Z,968.78
2018-10-02T01:38:07.625Z,968.84
2018-10-02T01:39:07.654Z,968.82
2018-10-02T01:40:07.597Z,968.82
2018-10-02T01:41:07.587Z,968.77
2018-10-02T01:42:07.581Z,968.76
2018-10-02T01:43:07.564Z,968.73
2018-10-02T01:44:07.564Z,968.78
2018-10-02T01:45:07.570Z,968.73
2018-10-02T01:46:07.574Z,968.79
2018-10-02T01:47:07.533Z,968.78
2018-10-02T01:48:07.512Z,968.78
2018-10-02T01:49:07.500Z,968.82
2018-10-02T01:50:07.526Z,968.82
2018-10-02T01:51:07.480Z,968.78
2018-10-02T01:52:07.475Z,968.74
2018-10-02T01:53:07.467Z,968.80
2018-10-02T01:54:07.445Z,968.72
2018-10-02T01:55:07.461Z,968.75
2018-10-02T01:56:07.428Z,968.77
2018-10-02T01:57:07.408Z,968.75
2018-10-02T01:58:07.401Z,968.78
2018-10-02T01:59:07.396Z,968.74
2018-10-02T02:00:07.424Z,968.81
2018-10-02T02:01:07.364Z,968.81
2018-10-02T02:02:07.363Z,968.81
2018-10-02T02:03:07.341Z,968.83
2018-10-02T02:04:07.331Z,968.79
2018-10-02T02:05:07.328Z,968.84
2018-10-02T02:06:07.341Z,968.80
2018-10-02T02:07:07.300Z,968.89
2018-10-02T02:08:07.297Z,968.85
2018-10-02T02:09:07.280Z,968.90
2018-10-02T02:10:07.267Z,968.89
2018-10-02T02:11:07.283Z,968.86
2018-10-02T02:12:07.254Z,968.96
2018-10-02T02:13:07.231Z,968.94
2018-10-02T02:14:07.224Z,968.99
2018-10-02T02:15:07.212Z,969.05
2018-10-02T02:16:07.220Z,969.09
2018-10-02T02:17:07.191Z,969.06
2018-10-02T02:18:07.178Z,969.07
2018-10-02T02:19:07.167Z,969.07
2018-10-02T02:20:07.163Z,969.08
2018-10-02T02:21:07.185Z,969.04
2018-10-02T02:22:07.134Z,969.08
2018-10-02T02:23:07.123Z,969.06
2018-10-02T02:24:07.109Z,969.15
2018-10-02T02:25:07.103Z,969.12
2018-10-02T02:26:07.089Z,969.11
2018-10-02T02:27:07.108Z,969.14
2018-10-02T02:28:07.065Z,969.11
2018-10-02T02:29:07.058Z,969.12
2018-10-02T02:30:07.045Z,969.16
2018-10-02T02:31:07.033Z,969.11
2018-10-02T02:32:07.069Z,969.18
2018-10-02T02:33:07.022Z,969.15
2018-10-02T02:34:07.000Z,969.16
2018-10-02T02:35:06.991Z,969.16
2018-10-02T02:36:06.980Z,969.18
2018-10-02T02:37:06.995Z,969.18
2018-10-02T02:38:06.956Z,969.19
2018-10-02T02:39:06.951Z,969.17
2018-10-02T02:40:06.933Z,969.17
2018-10-02T02:41:06.927Z,969.19
2018-10-02T02:42:06.944Z,969.20
2018-10-02T02:43:06.906Z,969.18
2018-10-02T02:44:06.897Z,969.16
2018-10-02T02:45:06.885Z,969.27
2018-10-02T02:46:06.869Z,969.19
2018-10-02T02:47:06.900Z,969.18
2018-10-02T02:48:06.850Z,969.19
2018-10-02T02:49:06.838Z,969.17
2018-10-02T02:50:06.824Z,969.21
2018-10-02T02:51:06.812Z,969.28
2018-10-02T02:52:06.826Z,969.27
2018-10-02T02:53:06.795Z,969.24
2018-10-02T02:54:06.784Z,969.30
2018-10-02T02:55:06.805Z,969.26
2018-10-02T02:56:06.757Z,969.35
2018-10-02T02:57:06.751Z,969.35
2018-10-02T02:58:06.748Z,969.40
2018-10-02T02:59:06.723Z,969.35
2018-10-02T03:00:06.718Z,969.40
2018-10-02T03:01:06.735Z,969.35
2018-10-02T03:02:06.725Z,969.37
2018-10-02T03:03:06.709Z,969.42
2018-10-02T03:04:06.682Z,969.40
2018-10-02T03:05:06.661Z,969.44
2018-10-02T03:06:06.661Z,969.40
2018-10-02T03:07:06.644Z,969.41
2018-10-02T03:08:06.664Z,969.38
2018-10-02T03:09:06.615Z,969.46
2018-10-02T03:10:06.617Z,969.43
2018-10-02T03:11:06.619Z,969.45
2018-10-02T03:12:06.582Z,969.48
2018-10-02T03:13:06.587Z,969.44
2018-10-02T03:14:06.560Z,969.40
2018-10-02T03:15:06.550Z,969.45
2018-10-02T03:16:06.573Z,969.42
2018-10-02T03:17:06.556Z,969.47
2018-10-02T03:18:06.517Z,969.44
2018-10-02T03:19:06.506Z,969.50
2018-10-02T03:20:06.493Z,969.50
2018-10-02T03:21:06.481Z,969.55
2018-10-02T03:22:06.500Z,969.63
2018-10-02T03:23:06.463Z,969.59
2018-10-02T03:24:06.448Z,969.60
2018-10-02T03:25:06.440Z,969.65
2018-10-02T03:26:06.435Z,969.64
2018-10-02T03:27:06.460Z,969.61
2018-10-02T03:28:06.413Z,969.63
2018-10-02T03:29:06.420Z,969.67
2018-10-02T03:30:06.385Z,969.66
2018-10-02T03:31:06.382Z,969.65
2018-10-02T03:32:06.386Z,969.65
2018-10-02T03:33:06.350Z,969.67
2018-10-02T03:34:06.342Z,969.67
2018-10-02T03:35:06.332Z,969.69
2018-10-02T03:36:06.353Z,969.65
2018-10-02T03:37:06.309Z,969.66
2018-10-02T03:38:06.297Z,969.64
2018-10-02T03:39:06.295Z,969.69
2018-10-02T03:40:06.282Z,969.65
2018-10-02T03:41:06.269Z,969.64
2018-10-02T03:42:06.279Z,969.66
2018-10-02T03:43:06.238Z,969.67
2018-10-02T03:44:06.234Z,969.67
2018-10-02T03:45:06.228Z,969.71
2018-10-02T03:46:06.207Z,969.70
2018-10-02T03:47:06.230Z,969.73
2018-10-02T03:48:06.195Z,969.72
2018-10-02T03:49:06.180Z,969.74
2018-10-02T03:50:06.169Z,969.75
2018-10-02T03:51:06.159Z,969.77
2018-10-02T03:52:06.184Z,969.75
2018-10-02T03:53:06.153Z,969.73
2018-10-02T03:54:06.125Z,969.86
2018-10-02T03:55:06.115Z,969.79
2018-10-02T03:56:06.097Z,969.85
2018-10-02T03:57:06.092Z,969.85
2018-10-02T03:58:06.101Z,969.84
2018-10-02T03:59:06.064Z,969.81
2018-10-02T04:00:06.061Z,969.82
2018-10-02T04:01:06.058Z,969.79
2018-10-02T04:02:06.031Z,969.80
2018-10-02T04:03:06.065Z,969.82
2018-10-02T04:04:06.019Z,969.83
2018-10-02T04:05:05.999Z,969.81
2018-10-02T04:06:05.994Z,969.77
2018-10-02T04:07:06.004Z,969.80
2018-10-02T04:08:05.981Z,969.90
2018-10-02T04:09:05.958Z,969.82
2018-10-02T04:10:05.949Z,969.91
2018-10-02T04:11:05.931Z,969.86
2018-10-02T04:12:05.957Z,969.85
2018-10-02T04:13:05.962Z,969.86
2018-10-02T04:14:05.911Z,969.84
2018-10-02T04:15:05.898Z,969.94
2018-10-02T04:16:05.884Z,969.90
2018-10-02T04:17:05.893Z,969.86
2018-10-02T04:18:05.855Z,969.83
2018-10-02T04:19:05.850Z,969.85
2018-10-02T04:20:05.836Z,969.88
2018-10-02T04:21:05.825Z,969.84
2018-10-02T04:22:05.851Z,969.87
2018-10-02T04:23:05.807Z,969.89
2018-10-02T04:24:05.792Z,969.90
2018-10-02T04:25:05.792Z,969.97
2018-10-02T04:26:05.774Z,969.95
2018-10-02T04:27:05.804Z,970.02
2018-10-02T04:28:05.932Z,969.99
2018-10-02T04:29:05.738Z,969.98
2018-10-02T04:30:05.722Z,970.00
2018-10-02T04:31:05.716Z,970.08
2018-10-02T04:32:05.704Z,970.03
2018-10-02T04:33:05.722Z,970.07
2018-10-02T04:34:05.729Z,970.08
2018-10-02T04:35:05.677Z,970.07
2018-10-02T04:36:05.658Z,970.06
2018-10-02T04:37:05.665Z,970.05
2018-10-02T04:38:05.641Z,970.07
2018-10-02T04:39:05.629Z,970.08
2018-10-02T04:40:05.625Z,970.06
2018-10-02T04:41:05.605Z,970.04
2018-10-02T04:42:05.623Z,970.03
2018-10-02T04:43:05.582Z,970.05
2018-10-02T04:44:05.574Z,970.01
2018-10-02T04:45:05.594Z,970.08
2018-10-02T04:46:05.548Z,970.07
2018-10-02T04:47:05.607Z,970.04
2018-10-02T04:48:05.523Z,970.01
2018-10-02T04:49:05.515Z,970.07
2018-10-02T04:50:05.530Z,970.08
2018-10-02T04:51:05.496Z,970.06
2018-10-02T04:52:05.539Z,970.10
2018-10-02T04:53:05.483Z,970.12
2018-10-02T04:54:05.460Z,970.16
2018-10-02T04:55:05.515Z,970.16
2018-10-02T04:56:05.522Z,970.18
2018-10-02T04:57:05.427Z,970.16
2018-10-02T04:58:05.443Z,970.16
2018-10-02T04:59:05.414Z,970.10
2018-10-02T05:00:05.389Z,970.14
2018-10-02T05:01:05.382Z,970.08
2018-10-02T05:02:05.377Z,970.11
2018-10-02T05:03:05.393Z,970.12
2018-10-02T05:04:05.349Z,970.15
2018-10-02T05:05:05.339Z,970.09
2018-10-02T05:06:05.332Z,970.11
2018-10-02T05:07:05.314Z,970.12
2018-10-02T05:08:05.343Z,970.15
2018-10-02T05:09:05.298Z,970.09
2018-10-02T05:10:12.331Z,970.12
2018-10-02T05:11:12.320Z,970.13
2018-10-02T05:12:12.306Z,970.16
2018-10-02T05:13:05.244Z,970.18
2018-10-02T05:14:05.324Z,970.19
2018-10-02T05:15:05.230Z,970.16
2018-10-02T05:16:05.215Z,970.18
2018-10-02T05:17:05.209Z,970.14
2018-10-02T05:18:05.199Z,970.20
2018-10-02T05:19:05.202Z,970.17
2018-10-02T05:20:05.171Z,970.18
2018-10-02T05:21:05.165Z,970.18
2018-10-02T05:22:05.151Z,970.19
2018-10-02T05:23:05.164Z,970.24
2018-10-02T05:24:05.129Z,970.16
2018-10-02T05:25:05.114Z,970.22
2018-10-02T05:26:05.107Z,970.20
2018-10-02T05:27:05.123Z,970.17
2018-10-02T05:28:05.120Z,970.21
2018-10-02T05:29:05.109Z,970.18
2018-10-02T05:30:05.070Z,970.17
2018-10-02T05:31:05.050Z,970.18
2018-10-02T05:32:05.038Z,970.20
2018-10-02T05:33:05.048Z,970.24
2018-10-02T05:34:05.017Z,970.27
2018-10-02T05:35:05.098Z,970.26
2018-10-02T05:36:04.996Z,970.22
2018-10-02T05:37:04.983Z,970.25
2018-10-02T05:38:05.021Z,970.20
2018-10-02T05:39:04.974Z,970.27
2018-10-02T05:40:04.952Z,970.25
2018-10-02T05:41:04.939Z,970.30
2018-10-02T05:42:04.928Z,970.26
2018-10-02T05:43:04.917Z,970.32
2018-10-02T05:44:04.928Z,970.28
2018-10-02T05:45:04.905Z,970.33
2018-10-02T05:46:04.885Z,970.37
2018-10-02T05:47:04.885Z,970.36
2018-10-02T05:48:04.872Z,970.32
2018-10-02T05:49:04.872Z,970.32
2018-10-02T05:50:04.838Z,970.31
2018-10-02T05:51:04.840Z,970.34
2018-10-02T05:52:04.827Z,970.33
2018-10-02T05:53:04.807Z,970.31
2018-10-02T05:54:04.820Z,970.31
2018-10-02T05:55:04.784Z,970.35
2018-10-02T05:56:04.774Z,970.39
2018-10-02T05:57:04.771Z,970.42
2018-10-02T05:58:04.759Z,970.46
2018-10-02T05:59:04.779Z,970.44
2018-10-02T06:00:04.735Z,970.41
2018-10-02T06:01:04.727Z,970.44
2018-10-02T06:02:04.704Z,970.42
2018-10-02T06:03:04.732Z,970.44
2018-10-02T06:04:04.740Z,970.46
2018-10-02T06:05:04.671Z,970.50
2018-10-02T06:06:04.666Z,970.50
2018-10-02T06:07:04.660Z,970.52
2018-10-02T06:08:04.682Z,970.52
2018-10-02T06:09:04.632Z,970.59
2018-10-02T06:10:04.712Z,970.55
2018-10-02T06:11:04.607Z,970.58
2018-10-02T06:12:04.607Z,970.58
2018-10-02T06:13:04.622Z,970.63
2018-10-02T06:14:04.580Z,970.63
2018-10-02T06:15:04.566Z,970.64
2018-10-02T06:16:04.564Z,970.61
2018-10-02T06:17:04.631Z,970.62
2018-10-02T06:18:04.605Z,970.67
2018-10-02T06:19:04.518Z,970.67
2018-10-02T06:20:04.528Z,970.66
2018-10-02T06:21:04.508Z,970.70
2018-10-02T06:22:04.520Z,970.66
2018-10-02T06:23:04.593Z,970.70
2018-10-02T06:24:04.464Z,970.73
2018-10-02T06:25:04.466Z,970.74
2018-10-02T06:26:04.440Z,970.74
2018-10-02T06:27:04.436Z,970.77
2018-10-02T06:28:04.429Z,970.82
2018-10-02T06:29:04.446Z,970.82
2018-10-02T06:30:04.431Z,970.83
2018-10-02T06:31:04.401Z,970.85
2018-10-02T06:32:04.382Z,970.90
2018-10-02T06:33:04.377Z,970.92
2018-10-02T06:34:04.394Z,970.88
2018-10-02T06:35:04.348Z,970.85
2018-10-02T06:36:04.346Z,970.88
2018-10-02T06:37:04.318Z,970.91
2018-10-02T06:38:04.401Z,970.89
2018-10-02T06:39:04.413Z,970.91
2018-10-02T06:40:04.300Z,970.97
2018-10-02T06:41:04.333Z,970.92
2018-10-02T06:42:04.265Z,970.92
2018-10-02T06:43:04.254Z,970.94
2018-10-02T06:44:04.274Z,970.92
2018-10-02T06:45:04.332Z,970.98
2018-10-02T06:46:04.217Z,970.92
2018-10-02T06:47:04.212Z,970.97
2018-10-02T06:48:04.255Z,970.96
2018-10-02T06:49:11.301Z,970.96
2018-10-02T06:50:04.211Z,971.00
2018-10-02T06:51:04.238Z,971.03
2018-10-02T06:52:04.502Z,971.06
2018-10-02T06:53:04.181Z,971.07
2018-10-02T06:54:04.160Z,971.05
2018-10-02T06:55:04.149Z,971.11
2018-10-02T06:56:04.109Z,971.12
2018-10-02T06:57:04.183Z,971.13
2018-10-02T06:58:04.085Z,971.09
2018-10-02T06:59:04.084Z,971.14
2018-10-02T07:00:04.112Z,971.05
2018-10-02T07:01:04.059Z,971.13
2018-10-02T07:02:04.042Z,971.11
2018-10-02T07:03:04.136Z,971.13
2018-10-02T07:04:04.028Z,971.17
2018-10-02T07:05:04.012Z,971.11
2018-10-02T07:06:04.001Z,971.11
2018-10-02T07:07:03.984Z,971.17
2018-10-02T07:08:03.973Z,971.13
2018-10-02T07:09:04.016Z,971.15
2018-10-02T07:10:03.953Z,971.22
2018-10-02T07:11:03.940Z,971.19
2018-10-02T07:12:03.934Z,971.21
2018-10-02T07:13:03.917Z,971.16
2018-10-02T07:14:03.984Z,971.14
2018-10-02T07:15:11.037Z,971.17
2018-10-02T07:16:03.891Z,971.23
2018-10-02T07:17:03.875Z,971.17
2018-10-02T07:18:04.304Z,971.22
2018-10-02T07:19:04.364Z,971.20
2018-10-02T07:20:03.842Z,971.21
2018-10-02T07:21:03.951Z,971.28
2018-10-02T07:22:03.982Z,971.30
2018-10-02T07:23:10.885Z,971.28
2018-10-02T07:24:03.805Z,971.29
2018-10-02T07:25:03.807Z,971.34
2018-10-02T07:26:03.774Z,971.31
2018-10-02T07:27:03.940Z,971.31
2018-10-02T07:28:03.965Z,971.31
2018-10-02T07:29:03.742Z,971.27
2018-10-02T07:30:03.787Z,971.32
2018-10-02T07:31:03.740Z,971.34
2018-10-02T07:32:03.736Z,971.31
2018-10-02T07:33:03.857Z,971.37
2018-10-02T07:34:03.749Z,971.39
2018-10-02T07:35:03.678Z,971.34
2018-10-02T07:36:03.667Z,971.35
2018-10-02T07:37:03.671Z,971.32
2018-10-02T07:38:03.642Z,971.33
2018-10-02T07:39:03.685Z,971.32
2018-10-02T07:40:03.629Z,971.38
2018-10-02T07:41:03.609Z,971.29
2018-10-02T07:42:03.669Z,971.29
2018-10-02T07:43:03.593Z,971.29
2018-10-02T07:44:03.611Z,971.34
2018-10-02T07:45:03.576Z,971.37
2018-10-02T07:46:03.558Z,971.33
2018-10-02T07:47:03.555Z,971.39
2018-10-02T07:48:03.620Z,971.35
2018-10-02T07:49:03.555Z,971.37
2018-10-02T07:50:03.517Z,971.34
2018-10-02T07:51:03.584Z,971.34
2018-10-02T07:52:03.493Z,971.35
2018-10-02T07:53:03.480Z,971.30
2018-10-02T07:54:03.551Z,971.29
2018-10-02T07:55:03.462Z,971.29
2018-10-02T07:56:03.455Z,971.30
2018-10-02T07:57:03.489Z,971.37
2018-10-02T07:58:03.428Z,971.39
2018-10-02T07:59:03.424Z,971.38
2018-10-02T08:00:03.508Z,971.40
2018-10-02T08:01:03.402Z,971.39
2018-10-02T08:02:03.388Z,971.41
2018-10-02T08:03:03.498Z,971.48
2018-10-02T08:04:03.365Z,971.42
2018-10-02T08:05:03.450Z,971.43
2018-10-02T08:06:03.444Z,971.43
2018-10-02T08:07:03.351Z,971.42
2018-10-02T08:08:03.322Z,971.37
2018-10-02T08:09:03.469Z,971.38
2018-10-02T08:10:03.299Z,971.36
2018-10-02T08:11:03.286Z,971.39
2018-10-02T08:12:03.375Z,971.33
2018-10-02T08:13:03.269Z,971.26
2018-10-02T08:14:03.752Z,971.33
2018-10-02T08:15:03.400Z,971.31
2018-10-02T08:16:03.244Z,971.36
2018-10-02T08:17:03.221Z,971.30
2018-10-02T08:18:03.291Z,971.24
2018-10-02T08:19:03.231Z,971.19
2018-10-02T08:20:03.218Z,971.29
2018-10-02T08:21:03.273Z,971.31
2018-10-02T08:22:03.168Z,971.35
2018-10-02T08:23:03.152Z,971.41
2018-10-02T08:24:10.801Z,971.35
2018-10-02T08:25:03.133Z,971.35
2018-10-02T08:26:03.140Z,971.33
2018-10-02T08:27:03.271Z,971.37
2018-10-02T08:28:03.099Z,971.35
2018-10-02T08:29:03.090Z,971.36
2018-10-02T08:30:03.192Z,971.38
2018-10-02T08:31:03.103Z,971.25
2018-10-02T08:32:03.058Z,971.25
2018-10-02T08:33:03.043Z,971.21
2018-10-02T08:34:03.030Z,971.19
2018-10-02T08:35:10.119Z,971.20
2018-10-02T08:36:03.403Z,971.23
2018-10-02T08:37:03.001Z,971.27
2018-10-02T08:38:03.021Z,971.27
2018-10-02T08:39:02.979Z,971.34
2018-10-02T08:40:03.009Z,971.29
2018-10-02T08:41:02.981Z,971.33
2018-10-02T08:42:02.936Z,971.37
2018-10-02T08:43:02.931Z,971.32
2018-10-02T08:44:02.947Z,971.39
2018-10-02T08:45:02.917Z,971.39
2018-10-02T08:46:02.901Z,971.35
2018-10-02T08:47:02.890Z,971.34
2018-10-02T08:48:02.930Z,971.31
2018-10-02T08:49:02.884Z,971.38
2018-10-02T08:50:02.858Z,971.41
2018-10-02T08:51:02.943Z,971.34
2018-10-02T08:52:02.885Z,971.35
2018-10-02T08:53:02.821Z,971.36
2018-10-02T08:54:02.979Z,971.38
2018-10-02T08:55:02.813Z,971.37
2018-10-02T08:56:02.809Z,971.40
2018-10-02T08:57:02.770Z,971.47
2018-10-02T08:58:02.773Z,971.52
2018-10-02T08:59:02.759Z,971.46
2018-10-02T09:00:02.763Z,971.43
2018-10-02T09:01:02.790Z,971.47
2018-10-02T09:02:02.747Z,971.49
2018-10-02T09:03:02.763Z,971.51
2018-10-02T09:04:02.701Z,971.50
2018-10-02T09:05:02.690Z,971.43
2018-10-02T09:06:02.674Z,971.45
2018-10-02T09:07:02.841Z,971.36
2018-10-02T09:08:02.661Z,971.34
2018-10-02T09:09:02.646Z,971.36
2018-10-02T09:10:02.641Z,971.31
2018-10-02T09:11:02.618Z,971.31
2018-10-02T09:12:02.666Z,971.35
2018-10-02T09:13:02.677Z,971.41
2018-10-02T09:14:02.585Z,971.40
2018-10-02T09:15:02.592Z,971.42
2018-10-02T09:16:02.728Z,971.34
2018-10-02T09:17:02.595Z,971.35
2018-10-02T09:18:02.543Z,971.31
2018-10-02T09:19:02.601Z,971.25
2018-10-02T09:20:02.535Z,971.26
2018-10-02T09:21:02.505Z,971.27
2018-10-02T09:22:02.579Z,971.20
2018-10-02T09:23:02.509Z,971.18
2018-10-02T09:24:02.554Z,971.17
2018-10-02T09:25:02.585Z,971.17
2018-10-02T09:26:02.471Z,971.20
2018-10-02T09:27:02.437Z,971.18
2018-10-02T09:28:02.520Z,971.21
2018-10-02T09:29:02.421Z,971.21
2018-10-02T09:30:02.409Z,971.21
2018-10-02T09:31:02.437Z,971.16
2018-10-02T09:32:02.385Z,971.19
2018-10-02T09:33:02.408Z,971.14
2018-10-02T09:34:02.385Z,971.15
2018-10-02T09:35:02.352Z,971.20
2018-10-02T09:36:02.334Z,971.16
2018-10-02T09:37:02.410Z,971.13
2018-10-02T09:38:02.320Z,971.14
2018-10-02T09:39:02.329Z,971.19
2018-10-02T09:40:02.346Z,971.20
2018-10-02T09:41:02.290Z,971.24
2018-10-02T09:42:02.272Z,971.26
2018-10-02T09:43:02.372Z,971.25
2018-10-02T09:44:02.351Z,971.20
2018-10-02T09:45:02.257Z,971.25
2018-10-02T09:46:02.345Z,971.24
2018-10-02T09:47:02.214Z,971.24
2018-10-02T09:48:02.205Z,971.24
2018-10-02T09:49:02.205Z,971.24
2018-10-02T09:50:02.223Z,971.26
2018-10-02T09:51:02.243Z,971.20
2018-10-02T09:52:02.162Z,971.24
2018-10-02T09:53:02.146Z,971.24
2018-10-02T09:54:02.141Z,971.28
2018-10-02T09:55:02.247Z,971.27
2018-10-02T09:56:02.147Z,971.25
2018-10-02T09:57:02.174Z,971.25
2018-10-02T09:58:02.084Z,971.23
2018-10-02T09:59:02.077Z,971.25
2018-10-02T10:00:02.071Z,971.20
2018-10-02T10:01:02.171Z,971.22
2018-10-02T10:02:02.083Z,971.24
2018-10-02T10:03:02.093Z,971.16
2018-10-02T10:04:02.017Z,971.17
2018-10-02T10:05:02.036Z,971.16
2018-10-02T10:06:01.998Z,971.17
2018-10-02T10:07:01.993Z,971.11
2018-10-02T10:08:01.979Z,971.17
2018-10-02T10:09:01.967Z,971.08
2018-10-02T10:10:01.988Z,971.12
2018-10-02T10:11:01.948Z,971.08
2018-10-02T10:12:01.933Z,971.07
2018-10-02T10:13:01.919Z,971.11
2018-10-02T10:14:01.909Z,971.08
2018-10-02T10:15:01.905Z,971.07
2018-10-02T10:16:01.912Z,971.04
2018-10-02T10:17:01.982Z,971.04
2018-10-02T10:18:01.860Z,971.00
2018-10-02T10:19:01.850Z,970.99
2018-10-02T10:20:01.945Z,970.99
2018-10-02T10:21:01.851Z,970.99
2018-10-02T10:22:01.815Z,971.09
2018-10-02T10:23:01.828Z,971.10
2018-10-02T10:24:01.793Z,971.08
2018-10-02T10:25:01.793Z,971.09
2018-10-02T10:26:01.793Z,971.09
2018-10-02T10:27:01.786Z,971.07
2018-10-02T10:28:01.749Z,971.08
2018-10-02T10:29:01.853Z,971.08
2018-10-02T10:30:01.727Z,970.96
2018-10-02T10:31:02.307Z,971.07
2018-10-02T10:32:01.715Z,970.98
2018-10-02T10:33:01.691Z,970.99
2018-10-02T10:34:01.683Z,970.93
2018-10-02T10:35:01.761Z,970.92
2018-10-02T10:36:01.729Z,970.88
2018-10-02T10:37:01.650Z,970.93
2018-10-02T10:38:01.643Z,970.98
2018-10-02T10:39:01.635Z,970.89
2018-10-02T10:40:01.710Z,970.90
2018-10-02T10:41:01.705Z,970.89
2018-10-02T10:42:01.602Z,970.82
2018-10-02T10:43:01.587Z,970.82
2018-10-02T10:44:01.576Z,970.72
2018-10-02T10:45:01.560Z,970.73
2018-10-02T10:46:01.545Z,970.76
2018-10-02T10:47:01.643Z,970.81
2018-10-02T10:48:01.523Z,970.71
2018-10-02T10:49:01.514Z,970.73
2018-10-02T10:50:01.515Z,970.72
2018-10-02T10:51:01.492Z,970.77
2018-10-02T10:52:01.510Z,970.68
2018-10-02T10:53:01.559Z,970.67
2018-10-02T10:54:01.458Z,970.68
2018-10-02T10:55:01.446Z,970.74
2018-10-02T10:56:01.449Z,970.72
2018-10-02T10:57:01.461Z,970.83
2018-10-02T10:58:01.414Z,970.76
2018-10-02T10:59:01.432Z,970.78
2018-10-02T11:00:01.400Z,970.77
2018-10-02T11:01:01.383Z,970.85
2018-10-02T11:02:01.388Z,970.85
2018-10-02T11:03:01.398Z,970.72
2018-10-02T11:04:01.345Z,970.73
2018-10-02T11:05:01.363Z,970.76
2018-10-02T11:06:01.333Z,970.77
2018-10-02T11:07:01.309Z,970.71
2018-10-02T11:08:01.338Z,970.73
2018-10-02T11:09:01.294Z,970.73
2018-10-02T11:10:01.317Z,970.76
2018-10-02T11:11:01.269Z,970.75
2018-10-02T11:12:01.273Z,970.74
2018-10-02T11:13:01.246Z,970.74
2018-10-02T11:14:01.293Z,970.75
2018-10-02T11:15:01.239Z,970.72
2018-10-02T11:16:01.388Z,970.76
2018-10-02T11:17:01.199Z,970.76
2018-10-02T11:18:01.191Z,970.72
2018-10-02T11:19:01.178Z,970.73
2018-10-02T11:20:01.166Z,970.68
2018-10-02T11:21:01.183Z,970.69
2018-10-02T11:22:01.155Z,970.69
2018-10-02T11:23:01.139Z,970.77
2018-10-02T11:24:01.184Z,970.72
2018-10-02T11:25:01.126Z,970.68
2018-10-02T11:26:01.162Z,970.72
2018-10-02T11:27:01.109Z,970.72
2018-10-02T11:28:01.080Z,970.73
2018-10-02T11:29:01.069Z,970.69
2018-10-02T11:30:01.062Z,970.73
2018-10-02T11:31:01.083Z,970.67
2018-10-02T11:32:01.063Z,970.73
2018-10-02T11:33:01.019Z,970.76
2018-10-02T11:34:01.008Z,970.68
2018-10-02T11:35:01.002Z,970.66
2018-10-02T11:36:08.077Z,970.59
2018-10-02T11:37:01.018Z,970.61
2018-10-02T11:38:00.972Z,970.64
2018-10-02T11:39:00.959Z,970.51
2018-10-02T11:40:00.947Z,970.49
2018-10-02T11:41:00.938Z,970.44
2018-10-02T11:42:00.955Z,970.41
2018-10-02T11:43:00.906Z,970.38
2018-10-02T11:44:00.920Z,970.37
2018-10-02T11:45:01.022Z,970.31
2018-10-02T11:46:00.921Z,970.36
2018-10-02T11:47:00.868Z,970.28
2018-10-02T11:48:00.852Z,970.28
2018-10-02T11:49:00.841Z,970.28
2018-10-02T11:50:00.946Z,970.27
2018-10-02T11:51:00.916Z,970.27
2018-10-02T11:52:00.811Z,970.21
2018-10-02T11:53:00.807Z,970.18
2018-10-02T11:54:00.789Z,970.25
2018-10-02T11:55:00.774Z,970.24
2018-10-02T11:56:00.775Z,970.31
2018-10-02T11:57:00.805Z,970.33
2018-10-02T11:58:00.746Z,970.24
2018-10-02T11:59:00.756Z,970.25
2018-10-02T12:00:00.806Z,970.23
2018-10-02T12:01:00.759Z,970.13
2018-10-02T12:02:00.737Z,970.21
2018-10-02T12:03:00.720Z,970.16
2018-10-02T12:04:00.693Z,970.16
2018-10-02T12:05:00.682Z,970.15
2018-10-02T12:06:00.655Z,970.16
2018-10-02T12:07:00.724Z,970.18
2018-10-02T12:08:00.636Z,970.14
2018-10-02T12:09:00.645Z,970.08
2018-10-02T12:10:00.617Z,970.14
2018-10-02T12:11:00.600Z,970.20
2018-10-02T12:12:00.614Z,970.22
2018-10-02T12:13:00.601Z,970.20
2018-10-02T12:14:00.724Z,970.19
2018-10-02T12:15:00.750Z,970.15
2018-10-02T12:16:00.546Z,970.14
2018-10-02T12:17:00.566Z,970.18
2018-10-02T12:18:00.543Z,970.17
2018-10-02T12:19:00.509Z,970.11
2018-10-02T12:20:00.751Z,970.10
2018-10-02T12:21:00.479Z,970.09
2018-10-02T12:22:00.469Z,970.09
2018-10-02T12:23:00.536Z,970.07
2018-10-02T12:24:00.449Z,970.09
2018-10-02T12:25:00.471Z,970.07
2018-10-02T12:26:00.428Z,969.99
2018-10-02T12:27:00.462Z,970.05
2018-10-02T12:28:00.417Z,969.98